Time;durP1;ratioP1;P1;durP2;ratioP2;P2;SDS_P1;SDS_P2;PMS_P1;PMS_P2;Temp;Humidity;BMP_temperature;BMP_pressure;BME280_temperature;BME280_humidity;BME280_pressure;Samples;Min_cycle;Max_cycle;Signal;HPM_P1;HPM_P2
2022/03/28 00:00:05;;;;;;;82.90;36.70;;;;;;;1.77;54.28;101298.79;106587;1270;22796;-76
2022/03/28 00:02:58;;;;;;;82.50;36.50;;;;;;;1.74;54.55;101291.16;106446;1271;23679;-76
2022/03/28 00:05:30;;;;;;;82.50;34.10;;;;;;;1.70;54.56;101290.21;106846;1270;23406;-76
2022/03/28 00:08:01;;;;;;;81.30;34.60;;;;;;;1.66;54.77;101285.73;106476;1270;24242;-77
2022/03/28 00:10:34;;;;;;;87.20;34.70;;;;;;;1.63;54.94;101286.83;106550;1270;22620;-74
2022/03/28 00:13:05;;;;;;;83.90;37.30;;;;;;;1.57;55.20;101286.14;106313;1270;22663;-75
2022/03/28 00:15:36;;;;;;;86.10;36.60;;;;;;;1.52;55.39;101287.94;106307;1270;25671;-75
2022/03/28 00:18:09;;;;;;;84.50;34.50;;;;;;;1.45;55.51;101285.89;106320;1270;22631;-76
2022/03/28 00:20:42;;;;;;;79.80;33.40;;;;;;;1.39;55.65;101283.84;106551;1270;22521;-77
2022/03/28 00:23:13;;;;;;;75.10;33.90;;;;;;;1.34;55.71;101282.34;106407;1270;22537;-76
2022/03/28 00:25:45;;;;;;;71.60;31.70;;;;;;;1.31;55.69;101280.61;106258;1271;22551;-76
2022/03/28 00:28:16;;;;;;;73.90;33.70;;;;;;;1.29;55.85;101279.03;106448;1271;25552;-75
2022/03/28 00:30:48;;;;;;;80.00;32.20;;;;;;;1.24;55.94;101275.09;106502;1270;25568;-76
2022/03/28 00:33:19;;;;;;;81.40;30.60;;;;;;;1.21;55.97;101271.48;106535;1270;22621;-75
2022/03/28 00:35:51;;;;;;;73.70;29.50;;;;;;;1.19;56.04;101273.44;106443;1270;23268;-76
2022/03/28 00:38:23;;;;;;;77.30;30.90;;;;;;;1.17;55.91;101269.49;106402;1269;23042;-77
2022/03/28 00:40:54;;;;;;;70.20;29.00;;;;;;;1.17;56.03;101270.92;106455;1270;22545;-76
2022/03/28 00:43:25;;;;;;;71.50;29.90;;;;;;;1.18;55.87;101266.36;106558;1270;25524;-76
2022/03/28 00:45:56;;;;;;;70.50;28.40;;;;;;;1.19;56.07;101257.41;106468;1271;24425;-76
2022/03/28 00:48:27;;;;;;;66.90;29.60;;;;;;;1.20;56.06;101254.90;106533;1270;24302;-75
2022/03/28 00:50:58;;;;;;;63.60;26.20;;;;;;;1.20;56.12;101245.15;106379;1270;26815;-75
2022/03/28 00:53:30;;;;;;;60.70;25.90;;;;;;;1.21;56.41;101245.93;106574;1270;22530;-76
2022/03/28 00:56:01;;;;;;;67.90;26.30;;;;;;;1.20;56.79;101240.58;106668;1270;22551;-76
2022/03/28 00:58:34;;;;;;;62.70;27.70;;;;;;;1.19;56.92;101243.41;106524;1270;22574;-75
2022/03/28 01:01:05;;;;;;;72.10;28.50;;;;;;;1.18;57.12;101243.02;106381;1271;22705;-77
2022/03/28 01:03:36;;;;;;;63.20;27.60;;;;;;;1.17;57.30;101236.34;106434;1271;23853;-76
2022/03/28 01:06:08;;;;;;;61.60;25.90;;;;;;;1.15;57.70;101228.72;106477;1270;22539;-76
2022/03/28 01:08:40;;;;;;;58.60;26.50;;;;;;;1.15;57.52;101227.54;106516;1271;22588;-76
2022/03/28 01:11:12;;;;;;;63.70;25.20;;;;;;;1.14;57.87;101226.52;106441;1271;22579;-76
2022/03/28 01:13:44;;;;;;;63.40;26.70;;;;;;;1.12;58.07;101223.52;106497;1271;23407;-76
2022/03/28 01:16:15;;;;;;;66.00;25.60;;;;;;;1.11;57.96;101222.98;106303;1271;23883;-76
2022/03/28 01:18:49;;;;;;;59.00;24.40;;;;;;;1.10;58.21;101219.43;106476;1270;22544;-78
2022/03/28 01:21:20;;;;;;;61.40;23.70;;;;;;;1.10;58.51;101220.93;106459;1271;22537;-77
2022/03/28 01:23:52;;;;;;;61.90;24.20;;;;;;;1.09;58.88;101217.79;106448;1271;24216;-76
2022/03/28 01:26:24;;;;;;;62.60;25.00;;;;;;;1.09;59.22;101216.06;106479;1271;24267;-76
2022/03/28 01:28:56;;;;;;;60.30;23.80;;;;;;;1.10;59.47;101213.70;106443;1271;25352;-76
2022/03/28 01:31:27;;;;;;;54.40;22.70;;;;;;;1.11;59.36;101212.14;106408;1270;22550;-76
2022/03/28 01:33:58;;;;;;;58.40;21.50;;;;;;;1.13;59.67;101207.35;106288;1271;22604;-76
2022/03/28 01:36:32;;;;;;;60.70;23.60;;;;;;;1.15;59.61;101201.21;106346;1270;23378;-77
2022/03/28 01:39:03;;;;;;;51.70;21.10;;;;;;;1.17;59.40;101200.02;106428;1271;22685;-77
2022/03/28 01:41:34;;;;;;;52.20;20.60;;;;;;;1.17;59.39;101196.73;106506;1270;22544;-76
2022/03/28 01:44:06;;;;;;;56.00;21.40;;;;;;;1.18;59.54;101197.36;106530;1271;22631;-76
2022/03/28 01:46:44;;;;;;;51.60;21.90;;;;;;;1.18;59.59;101191.95;106515;1271;24269;-77
2022/03/28 01:49:16;;;;;;;53.70;19.90;;;;;;;1.20;59.69;101188.34;106576;1271;22551;-76
2022/03/28 01:51:49;;;;;;;56.80;20.80;;;;;;;1.21;59.67;101184.25;106213;1270;25698;-76
2022/03/28 01:54:20;;;;;;;51.70;21.10;;;;;;;1.22;59.65;101183.06;106403;1270;26230;-74
2022/03/28 01:56:52;;;;;;;58.80;23.40;;;;;;;1.23;59.51;101176.85;106524;1271;24375;-76
2022/03/28 01:59:23;;;;;;;51.70;20.70;;;;;;;1.24;59.22;101178.97;106439;1270;22518;-75
2022/03/28 02:01:54;;;;;;;55.70;22.40;;;;;;;1.25;59.40;101174.81;106409;1271;24422;-76
2022/03/28 02:04:25;;;;;;;57.80;21.70;;;;;;;1.23;59.67;101172.85;106454;1271;25381;-75
2022/03/28 02:06:56;;;;;;;50.30;19.90;;;;;;;1.21;59.89;101171.67;106450;1271;22531;-75
2022/03/28 02:09:28;;;;;;;52.70;20.60;;;;;;;1.17;59.81;101169.39;106357;1271;22560;-76
2022/03/28 02:11:59;;;;;;;49.20;18.80;;;;;;;1.17;60.00;101165.46;106504;1271;22534;-75
2022/03/28 02:14:30;;;;;;;55.40;20.70;;;;;;;1.16;60.19;101159.82;106313;1270;22678;-76
2022/03/28 02:17:01;;;;;;;54.30;20.00;;;;;;;1.14;60.07;101152.81;106462;1272;22727;-77
2022/03/28 02:19:32;;;;;;;46.40;19.00;;;;;;;1.14;59.81;101147.95;106397;1271;22605;-76
2022/03/28 02:22:04;;;;;;;52.10;18.40;;;;;;;1.14;59.36;101147.63;106251;1271;22612;-76
2022/03/28 02:24:35;;;;;;;51.70;20.30;;;;;;;1.12;59.47;101146.92;106302;1271;22671;-75
2022/03/28 02:27:07;;;;;;;51.10;18.70;;;;;;;1.11;59.67;101140.01;106452;1270;23386;-77
2022/03/28 02:29:38;;;;;;;48.90;18.90;;;;;;;1.08;59.64;101139.14;106403;1271;22579;-76
2022/03/28 02:32:12;;;;;;;47.60;18.10;;;;;;;1.06;59.87;101133.24;106092;1271;480076;-76
2022/03/28 02:34:44;;;;;;;46.10;20.00;;;;;;;1.04;60.27;101129.72;106386;1271;23395;-77
2022/03/28 02:37:16;;;;;;;46.70;18.50;;;;;;;1.02;60.19;101130.02;106491;1271;22597;-76
2022/03/28 02:39:47;;;;;;;49.90;18.80;;;;;;;1.00;60.19;101128.05;107428;1263;22698;-79
2022/03/28 02:42:22;;;;;;;47.80;17.70;;;;;;;1.00;60.22;101125.63;107299;1270;22544;-79
2022/03/28 02:44:54;;;;;;;47.40;16.90;;;;;;;1.00;60.24;101119.96;107178;1270;22818;-80
2022/03/28 02:47:26;;;;;;;51.60;17.50;;;;;;;1.00;59.89;101120.75;106990;1271;22560;-80
2022/03/28 02:49:59;;;;;;;45.70;16.90;;;;;;;1.02;60.19;101119.33;107090;1270;22563;-80
2022/03/28 02:52:30;;;;;;;48.70;18.00;;;;;;;1.02;60.33;101115.95;106717;1270;25979;-80
2022/03/28 02:55:02;;;;;;;52.10;19.10;;;;;;;1.01;60.47;101114.95;107079;1269;22567;-79
2022/03/28 02:57:33;;;;;;;45.20;17.80;;;;;;;1.01;60.90;101108.73;107149;1270;22682;-79
2022/03/28 03:00:07;;;;;;;48.20;19.10;;;;;;;1.00;61.10;101108.27;107043;1270;22584;-80
2022/03/28 03:02:39;;;;;;;45.50;18.10;;;;;;;1.00;61.11;101107.72;107143;1270;26008;-80
2022/03/28 03:05:12;;;;;;;42.90;16.90;;;;;;;1.00;61.38;101107.17;107160;1270;25255;-79
2022/03/28 03:07:43;;;;;;;45.90;16.90;;;;;;;1.01;61.44;101106.70;107150;1269;22610;-78
2022/03/28 03:10:15;;;;;;;48.80;19.00;;;;;;;1.03;61.28;101107.01;107070;1270;22490;-80
2022/03/28 03:12:46;;;;;;;46.30;18.00;;;;;;;1.06;60.90;101101.03;107193;1270;22578;-79
2022/03/28 03:15:17;;;;;;;51.80;17.40;;;;;;;1.08;60.71;101104.34;106720;1271;24998;-79
2022/03/28 03:17:49;;;;;;;49.60;17.40;;;;;;;1.10;60.62;101108.02;106732;1270;24220;-80
2022/03/28 03:20:20;;;;;;;53.20;19.60;;;;;;;1.10;60.68;101108.09;107072;1270;22555;-78
2022/03/28 03:22:52;;;;;;;51.40;18.90;;;;;;;1.11;60.43;101109.52;107141;1270;22690;-80
2022/03/28 03:25:23;;;;;;;46.10;19.40;;;;;;;1.10;60.75;101105.98;106752;1270;22571;-80
2022/03/28 03:27:54;;;;;;;59.70;20.30;;;;;;;1.07;60.83;101111.33;106809;1271;25659;-80
2022/03/28 03:30:26;;;;;;;52.70;18.30;;;;;;;1.05;60.89;101108.50;107175;1271;22660;-80
2022/03/28 03:32:57;;;;;;;47.70;17.00;;;;;;;1.02;60.89;101109.13;106717;1270;22725;-79
2022/03/28 03:35:29;;;;;;;50.30;17.80;;;;;;;0.99;60.84;101113.21;107170;1270;22689;-79
2022/03/28 03:38:00;;;;;;;52.10;18.50;;;;;;;0.96;60.91;101115.17;107200;1271;22746;-80
2022/03/28 03:40:31;;;;;;;48.20;18.70;;;;;;;0.93;60.75;101112.90;107112;1271;22568;-79
2022/03/28 03:43:02;;;;;;;56.20;19.60;;;;;;;0.91;60.72;101114.55;107152;1271;22670;-81
2022/03/28 03:45:33;;;;;;;50.40;18.60;;;;;;;0.89;60.73;101115.57;107072;1270;22806;-80
2022/03/28 03:48:04;;;;;;;47.90;18.90;;;;;;;0.86;60.73;101115.50;107083;1270;22626;-80
2022/03/28 03:50:36;;;;;;;48.10;19.30;;;;;;;0.83;60.60;101112.42;107163;1271;22915;-81
2022/03/28 03:53:07;;;;;;;59.30;21.20;;;;;;;0.81;60.78;101112.36;107172;1271;25399;-80
2022/03/28 03:55:38;;;;;;;54.80;19.30;;;;;;;0.76;61.10;101112.26;107082;1271;24266;-80
2022/03/28 03:58:10;;;;;;;56.80;20.70;;;;;;;0.73;61.07;101109.90;107125;1270;22623;-80
2022/03/28 04:00:42;;;;;;;56.60;21.10;;;;;;;0.70;61.28;101105.51;107135;1271;22581;-79
2022/03/28 04:03:13;;;;;;;59.80;21.80;;;;;;;0.68;61.38;101105.50;107004;1270;22555;-76
2022/03/28 04:05:44;;;;;;;60.00;24.10;;;;;;;0.67;61.24;101099.92;106420;1271;22618;-75
2022/03/28 04:08:16;;;;;;;58.90;22.50;;;;;;;0.68;61.32;101097.50;106510;1271;25582;-76
2022/03/28 04:10:47;;;;;;;67.30;25.30;;;;;;;0.68;61.50;101091.06;106500;1271;22916;-77
2022/03/28 04:13:19;;;;;;;78.50;28.30;;;;;;;0.66;61.65;101088.94;106362;1271;25591;-75
2022/03/28 04:15:51;;;;;;;71.80;25.60;;;;;;;0.66;61.54;101086.19;106507;1271;22726;-76
2022/03/28 04:18:25;;;;;;;74.80;27.80;;;;;;;0.66;61.54;101086.27;106574;1270;22702;-76
2022/03/28 04:20:57;;;;;;;82.30;28.90;;;;;;;0.66;61.70;101084.38;106562;1271;22622;-76
2022/03/28 04:23:28;;;;;;;78.20;27.40;;;;;;;0.67;61.78;101086.11;106601;1271;22640;-76
2022/03/28 04:25:59;;;;;;;73.20;27.40;;;;;;;0.66;61.87;101081.40;106580;1271;22803;-76
2022/03/28 04:28:31;;;;;;;72.60;25.90;;;;;;;0.66;61.82;101080.54;106554;1271;22563;-76
2022/03/28 04:31:02;;;;;;;70.20;26.90;;;;;;;0.65;61.80;101085.09;106569;1270;25708;-77
2022/03/28 04:33:34;;;;;;;76.40;27.20;;;;;;;0.66;61.90;101080.39;106620;1271;22637;-77
2022/03/28 04:36:06;;;;;;;75.00;26.10;;;;;;;0.66;61.62;101081.48;106571;1271;22603;-77
2022/03/28 04:38:37;;;;;;;72.90;28.90;;;;;;;0.66;61.96;101082.42;106573;1271;26050;-77
2022/03/28 04:41:08;;;;;;;76.50;27.80;;;;;;;0.63;62.11;101085.95;106528;1271;22707;-77
2022/03/28 04:43:39;;;;;;;107.20;43.00;;;;;;;0.60;62.27;101089.80;106583;1270;22629;-75
2022/03/28 04:46:11;;;;;;;99.20;39.20;;;;;;;0.55;62.26;101087.52;106517;1271;22669;-78
2022/03/28 04:48:42;;;;;;;104.10;37.80;;;;;;;0.52;62.22;101084.52;106620;1271;25588;-78
2022/03/28 04:51:14;;;;;;;99.50;38.20;;;;;;;0.50;62.12;101082.88;106620;1270;25504;-77
2022/03/28 04:53:46;;;;;;;102.20;38.10;;;;;;;0.49;62.30;101085.55;106710;1271;22572;-76
2022/03/28 04:56:17;;;;;;;100.40;42.30;;;;;;;0.48;62.50;101084.52;106590;1270;22597;-77
2022/03/28 04:58:49;;;;;;;104.50;39.30;;;;;;;0.46;62.34;101085.93;106752;1271;26442;-77
2022/03/28 05:01:20;;;;;;;106.90;42.00;;;;;;;0.45;62.37;101081.45;106640;1271;22686;-77
2022/03/28 05:03:54;;;;;;;121.90;47.80;;;;;;;0.46;62.44;101085.23;106586;1270;24229;-76
2022/03/28 05:06:25;;;;;;;132.50;55.70;;;;;;;0.44;62.58;101082.48;106598;1271;23309;-76
2022/03/28 05:08:56;;;;;;;133.80;51.50;;;;;;;0.43;62.83;101080.52;106648;1271;22655;-76
2022/03/28 05:11:29;;;;;;;126.70;53.10;;;;;;;0.44;62.67;101081.38;106655;1270;23628;-77
2022/03/28 05:14:02;;;;;;;135.20;53.20;;;;;;;0.45;62.54;101078.08;106673;1271;24541;-76
2022/03/28 05:16:33;;;;;;;129.70;52.60;;;;;;;0.48;62.55;101080.44;106644;1271;25539;-75
2022/03/28 05:19:05;;;;;;;130.10;51.80;;;;;;;0.50;62.57;101082.87;106631;1270;22809;-77
2022/03/28 05:21:36;;;;;;;125.70;53.30;;;;;;;0.53;62.35;101075.11;106732;1271;23177;-76
2022/03/28 05:24:08;;;;;;;137.40;56.60;;;;;;;0.57;62.47;101070.80;106565;1270;22945;-76
2022/03/28 05:26:39;;;;;;;138.80;57.30;;;;;;;0.60;62.52;101067.82;106512;1270;22677;-75
2022/03/28 05:29:11;;;;;;;127.10;55.30;;;;;;;0.63;62.74;101068.29;106605;1270;22605;-76
2022/03/28 05:31:43;;;;;;;115.70;48.40;;;;;;;0.65;62.94;101068.27;106691;1270;25554;-75
2022/03/28 05:34:15;;;;;;;106.90;44.60;;;;;;;0.67;63.15;101068.91;106514;1270;22629;-76
2022/03/28 05:36:47;;;;;;;98.20;41.80;;;;;;;0.68;63.42;101064.28;106563;1270;24089;-76
2022/03/28 05:39:18;;;;;;;90.70;35.20;;;;;;;0.71;63.84;101061.14;106574;1270;22690;-76
2022/03/28 05:41:50;;;;;;;87.20;35.80;;;;;;;0.73;64.27;101059.89;106410;1270;22713;-78
2022/03/28 05:44:23;;;;;;;78.20;31.70;;;;;;;0.76;64.27;101060.20;106616;1270;22614;-76
2022/03/28 05:46:54;;;;;;;80.90;30.00;;;;;;;0.82;64.44;101058.88;106529;1270;24754;-76
2022/03/28 05:49:25;;;;;;;65.50;26.00;;;;;;;0.87;64.79;101054.39;106538;1270;26228;-73
2022/03/28 05:51:56;;;;;;;55.20;20.30;;;;;;;0.93;64.99;101050.38;107034;1270;24173;-76
2022/03/28 05:54:33;;;;;;;47.40;17.70;;;;;;;1.02;65.61;101047.30;106963;1270;22787;-75
2022/03/28 05:57:05;;;;;;;43.90;18.10;;;;;;;1.12;65.55;101045.64;106737;1270;24214;-77
2022/03/28 05:59:37;;;;;;;43.90;18.20;;;;;;;1.21;65.68;101040.13;107018;1270;22712;-75
2022/03/28 06:02:10;;;;;;;43.50;17.60;;;;;;;1.32;66.21;101040.48;107022;1270;23147;-76
2022/03/28 06:04:41;;;;;;;47.50;17.20;;;;;;;1.46;66.29;101037.63;106554;1270;22610;-75
2022/03/28 06:07:12;;;;;;;41.80;16.80;;;;;;;1.59;66.51;101034.27;106479;1270;22593;-75
2022/03/28 06:09:45;;;;;;;54.70;20.10;;;;;;;1.73;66.53;101037.77;106337;1270;22580;-78
2022/03/28 06:12:20;;;;;;;47.00;19.40;;;;;;;1.84;66.45;101031.74;106386;1270;22720;-75
2022/03/28 06:14:51;;;;;;;48.10;17.80;;;;;;;1.98;67.03;101030.95;106364;1270;23891;-75
2022/03/28 06:17:27;;;;;;;53.80;18.40;;;;;;;2.15;67.17;101028.64;106561;1270;22724;-74
2022/03/28 06:19:58;;;;;;;47.80;17.10;;;;;;;2.35;67.18;101028.44;106528;1270;24701;-75
2022/03/28 06:22:29;;;;;;;46.30;19.60;;;;;;;2.51;67.13;101023.99;106495;1270;22594;-75
2022/03/28 06:25:04;;;;;;;46.60;17.90;;;;;;;2.67;67.19;101020.87;106444;1270;25472;-75
2022/03/28 06:27:40;;;;;;;51.20;15.70;;;;;;;2.81;67.16;101018.16;106437;1270;25658;-75
2022/03/28 06:30:13;;;;;;;40.80;17.20;;;;;;;2.96;67.39;101015.41;106448;1270;22533;-76
2022/03/28 06:32:44;;;;;;;49.90;17.30;;;;;;;3.16;67.24;101012.52;106417;1270;22553;-76
2022/03/28 06:35:15;;;;;;;41.00;16.00;;;;;;;3.35;67.22;101011.54;106423;1270;24199;-76
2022/03/28 06:37:52;;;;;;;57.40;22.20;;;;;;;3.54;67.13;101000.67;106378;1270;24176;-76
2022/03/28 06:40:24;;;;;;;58.60;22.70;;;;;;;3.75;67.24;100999.23;106439;1270;22613;-76
2022/03/28 06:42:55;;;;;;;47.70;17.10;;;;;;;3.99;67.27;100995.58;106379;1270;22685;-76
2022/03/28 06:45:28;;;;;;;40.20;12.30;;;;;;;4.21;67.17;100992.81;106423;1270;24511;-74
2022/03/28 06:48:00;;;;;;;38.10;14.50;;;;;;;4.46;67.15;100995.02;106421;1270;24401;-76
2022/03/28 06:50:33;;;;;;;34.30;12.70;;;;;;;4.74;67.04;100989.44;106381;1270;22568;-75
2022/03/28 06:53:06;;;;;;;34.20;12.40;;;;;;;5.03;66.82;100988.91;106394;1270;24424;-75
2022/03/28 06:55:37;;;;;;;35.60;12.50;;;;;;;5.30;66.46;100985.21;106407;1270;22737;-75
2022/03/28 06:58:09;;;;;;;34.50;12.30;;;;;;;5.54;66.31;100984.91;106364;1270;22555;-75
2022/03/28 07:00:40;;;;;;;36.50;12.40;;;;;;;5.77;66.20;100984.34;106453;1270;22552;-75
2022/03/28 07:03:12;;;;;;;33.80;12.70;;;;;;;6.01;66.03;100985.36;106347;1270;22570;-76
2022/03/28 07:05:44;;;;;;;34.60;13.90;;;;;;;6.25;65.83;100982.75;106268;1270;23361;-75
2022/03/28 07:08:15;;;;;;;32.70;12.00;;;;;;;6.44;65.64;100981.11;106362;1270;24282;-75
2022/03/28 07:10:50;;;;;;;30.00;10.80;;;;;;;6.63;65.50;100978.10;106426;1269;22548;-75
2022/03/28 07:13:22;;;;;;;30.40;9.40;;;;;;;6.85;65.25;100971.17;106429;1270;22526;-76
2022/03/28 07:15:57;;;;;;;30.90;10.00;;;;;;;7.05;64.98;100969.86;106382;1270;22682;-74
2022/03/28 07:18:28;;;;;;;24.30;9.00;;;;;;;7.30;64.78;100971.71;106386;1270;22572;-75
2022/03/28 07:21:03;;;;;;;23.40;7.90;;;;;;;7.58;64.36;100965.84;106389;1270;22628;-75
2022/03/28 07:23:35;;;;;;;23.10;7.20;;;;;;;7.83;64.27;100962.88;106446;1270;22644;-75
2022/03/28 07:26:06;;;;;;;29.60;8.30;;;;;;;8.10;63.79;100962.84;106391;1270;26026;-75
2022/03/28 07:28:42;;;;;;;28.50;8.40;;;;;;;8.36;63.36;100957.88;106324;1270;26501;-75
2022/03/28 07:31:13;;;;;;;25.30;7.50;;;;;;;8.58;62.96;100954.48;106422;1270;22531;-76
2022/03/28 07:33:48;;;;;;;22.30;6.80;;;;;;;8.76;62.68;100951.95;106402;1270;26505;-75
2022/03/28 07:36:20;;;;;;;25.50;7.20;;;;;;;8.94;62.49;100948.12;106411;1269;22574;-75
2022/03/28 07:38:52;;;;;;;20.30;6.50;;;;;;;9.18;62.26;100942.23;106439;1270;23081;-75
2022/03/28 07:41:27;;;;;;;18.70;6.20;;;;;;;9.38;62.01;100938.91;106327;1270;24252;-74
2022/03/28 07:44:00;;;;;;;18.80;5.10;;;;;;;9.58;61.60;100936.15;106461;1270;23150;-76
2022/03/28 07:46:32;;;;;;;19.10;6.20;;;;;;;9.81;61.07;100937.15;106414;1270;25311;-75
2022/03/28 07:49:04;;;;;;;27.00;7.30;;;;;;;10.01;60.88;100933.33;106457;1270;22532;-75
2022/03/28 07:51:35;;;;;;;21.20;7.50;;;;;;;10.17;60.41;100935.65;106376;1270;22528;-74
2022/03/28 07:54:07;;;;;;;18.00;5.50;;;;;;;10.31;60.24;100929.33;106215;1270;22691;-77
2022/03/28 07:56:39;;;;;;;17.80;5.60;;;;;;;10.44;60.00;100929.73;106391;1270;22612;-75
2022/03/28 07:59:12;;;;;;;20.00;5.50;;;;;;;10.55;59.73;100929.75;106457;1270;22796;-75
2022/03/28 08:01:43;;;;;;;19.80;5.90;;;;;;;10.68;59.52;100924.69;106500;1270;22568;-75
2022/03/28 08:04:15;;;;;;;19.20;6.00;;;;;;;10.82;59.45;100923.42;106459;1270;23467;-75
2022/03/28 08:06:47;;;;;;;19.60;6.30;;;;;;;10.98;58.92;100922.41;106432;1270;25241;-75
2022/03/28 08:09:19;;;;;;;14.60;4.90;;;;;;;11.10;58.48;100913.77;106403;1270;25544;-75
2022/03/28 08:11:56;;;;;;;16.20;5.00;;;;;;;11.21;58.39;100905.73;106436;1270;22530;-75
2022/03/28 08:14:28;;;;;;;14.90;4.70;;;;;;;11.34;58.19;100902.98;106544;1270;22585;-76
2022/03/28 08:16:59;;;;;;;16.00;5.00;;;;;;;11.46;57.92;100901.50;106547;1270;22705;-75
2022/03/28 08:19:31;;;;;;;16.20;4.70;;;;;;;11.56;57.66;100904.39;106580;1270;22547;-75
2022/03/28 08:22:06;;;;;;;15.00;5.00;;;;;;;11.68;57.67;100895.06;106480;1270;22534;-76
2022/03/28 08:24:38;;;;;;;20.60;5.90;;;;;;;11.78;57.26;100889.72;106704;1270;25206;-76
2022/03/28 08:27:10;;;;;;;16.90;5.70;;;;;;;11.85;57.09;100884.52;106462;1270;25149;-76
2022/03/28 08:29:41;;;;;;;15.00;4.80;;;;;;;11.93;56.97;100883.17;106484;1270;26683;-76
2022/03/28 08:32:13;;;;;;;15.20;4.90;;;;;;;12.02;56.95;100881.30;106503;1269;23097;-76
2022/03/28 08:34:46;;;;;;;15.90;4.80;;;;;;;12.10;56.66;100877.33;106408;1270;22610;-75
2022/03/28 08:37:19;;;;;;;17.40;5.00;;;;;;;12.22;56.59;100873.73;106429;1270;25351;-75
2022/03/28 08:39:54;;;;;;;15.30;4.80;;;;;;;12.34;56.24;100870.52;107021;1263;22533;-77
2022/03/28 08:42:28;;;;;;;15.70;4.70;;;;;;;12.44;55.99;100870.14;106780;1270;22621;-78
2022/03/28 08:44:59;;;;;;;16.00;5.50;;;;;;;12.52;55.55;100870.05;106603;1271;22539;-77
2022/03/28 08:47:32;;;;;;;13.50;4.30;;;;;;;12.56;55.58;100867.84;107009;1270;22600;-77
2022/03/28 08:50:05;;;;;;;12.60;4.20;;;;;;;12.63;55.59;100864.55;107220;1270;22587;-77
2022/03/28 08:52:36;;;;;;;13.00;4.00;;;;;;;12.72;55.42;100857.58;107381;1271;22534;-79
2022/03/28 08:55:09;;;;;;;15.80;4.70;;;;;;;12.83;54.93;100854.27;107241;1270;26117;-78
2022/03/28 08:57:41;;;;;;;13.80;4.60;;;;;;;12.94;54.39;100853.13;107398;1270;25474;-79
2022/03/28 09:00:14;;;;;;;13.90;3.90;;;;;;;13.01;54.46;100847.33;107227;1270;22572;-78
2022/03/28 09:02:47;;;;;;;14.30;5.20;;;;;;;13.04;54.15;100846.27;107379;1268;25283;-78
2022/03/28 09:05:20;;;;;;;15.80;5.50;;;;;;;13.09;54.14;100843.33;107368;1270;22539;-78
2022/03/28 09:07:55;;;;;;;16.20;5.50;;;;;;;13.16;53.91;100839.52;107490;1271;22544;-78
2022/03/28 09:10:32;;;;;;;14.10;4.90;;;;;;;13.23;53.73;100834.16;107313;1270;24243;-79
2022/03/28 09:13:06;;;;;;;13.80;5.10;;;;;;;13.31;53.58;100826.48;107433;1270;22574;-78
2022/03/28 09:16:05;;;;;;;15.50;5.80;;;;;;;13.42;53.14;100825.26;107356;1270;22733;-78
2022/03/28 09:18:39;;;;;;;14.90;5.30;;;;;;;13.51;52.92;100823.05;106909;1276;22547;-78
2022/03/28 09:21:16;;;;;;;15.20;4.90;;;;;;;13.59;52.97;100823.85;106831;1276;23857;-78
2022/03/28 09:23:51;;;;;;;15.90;5.20;;;;;;;13.66;52.80;100826.86;106916;1276;25390;-78
2022/03/28 09:26:24;;;;;;;14.40;4.70;;;;;;;13.73;52.26;100823.27;106825;1276;22567;-78
2022/03/28 09:28:58;;;;;;;11.70;4.50;;;;;;;13.82;51.97;100819.06;106895;1274;22557;-78
2022/03/28 09:31:31;;;;;;;16.30;5.30;;;;;;;13.89;51.76;100820.04;106990;1276;22587;-78
2022/03/28 09:34:09;;;;;;;16.10;5.10;;;;;;;13.97;51.93;100817.08;106861;1276;22558;-78
2022/03/28 09:36:47;;;;;;;14.80;4.80;;;;;;;14.03;51.62;100808.14;106567;1276;22558;-78
2022/03/28 09:39:21;;;;;;;16.50;5.70;;;;;;;14.09;51.95;100806.43;106929;1276;22571;-78
2022/03/28 09:42:05;;;;;;;15.60;5.50;;;;;;;14.16;51.58;100802.91;106817;1277;23066;-78
2022/03/28 09:44:42;;;;;;;18.00;6.30;;;;;;;14.19;51.41;100802.55;106856;1276;25962;-78
2022/03/28 09:47:17;;;;;;;18.00;5.90;;;;;;;14.21;50.95;100794.40;106880;1276;22563;-78
2022/03/28 09:49:54;;;;;;;14.00;5.80;;;;;;;14.23;51.22;100791.30;107076;1276;23095;-78
2022/03/28 09:52:28;;;;;;;15.20;5.70;;;;;;;14.34;51.11;100789.95;106918;1276;22617;-78
2022/03/28 09:55:03;;;;;;;18.90;5.90;;;;;;;14.41;51.25;100785.13;106938;1271;22593;-78
2022/03/28 09:57:37;;;;;;;16.90;6.10;;;;;;;14.49;50.78;100783.28;107352;1270;22605;-78
2022/03/28 10:00:14;;;;;;;13.90;5.70;;;;;;;14.53;49.74;100774.39;107310;1270;22572;-78
2022/03/28 10:02:46;;;;;;;17.20;6.60;;;;;;;14.59;50.18;100776.40;107345;1270;22557;-78
2022/03/28 10:05:18;;;;;;;14.50;5.10;;;;;;;14.65;50.15;100769.62;106871;1270;26495;-77
2022/03/28 10:07:51;;;;;;;16.10;5.40;;;;;;;14.71;49.95;100763.23;106691;1271;23046;-77
2022/03/28 10:10:24;;;;;;;14.00;5.20;;;;;;;14.77;49.70;100754.61;106926;1270;25287;-77
2022/03/28 10:12:56;;;;;;;15.00;5.60;;;;;;;14.81;49.11;100751.84;106971;1271;22480;-78
2022/03/28 10:15:28;;;;;;;13.70;5.20;;;;;;;14.90;49.03;100742.03;107449;1270;23351;-78
2022/03/28 10:17:59;;;;;;;12.80;4.20;;;;;;;15.00;48.99;100744.47;107242;1270;25804;-78
2022/03/28 10:20:31;;;;;;;17.00;6.10;;;;;;;15.09;48.70;100742.09;107283;1270;22528;-78
2022/03/28 10:23:04;;;;;;;13.90;5.60;;;;;;;15.16;48.07;100736.53;107239;1270;22557;-78
2022/03/28 10:25:38;;;;;;;17.10;5.60;;;;;;;15.18;47.74;100730.05;107293;1270;22568;-78
2022/03/28 10:28:11;;;;;;;15.00;5.90;;;;;;;15.20;47.94;100727.30;107203;1270;24217;-78
2022/03/28 10:30:44;;;;;;;14.50;4.60;;;;;;;15.23;47.83;100730.45;107304;1270;22608;-78
2022/03/28 10:33:19;;;;;;;16.60;5.60;;;;;;;15.32;47.10;100728.83;107311;1270;25288;-78
2022/03/28 10:36:00;;;;;;;11.20;4.10;;;;;;;15.43;46.93;100726.86;107386;1270;26436;-77
2022/03/28 10:38:32;;;;;;;13.00;4.80;;;;;;;15.54;47.02;100721.17;107396;1270;22614;-78
2022/03/28 10:41:05;;;;;;;16.40;5.30;;;;;;;15.61;46.80;100717.64;107449;1270;23354;-79
2022/03/28 10:43:37;;;;;;;20.20;5.30;;;;;;;15.65;46.37;100713.98;107493;1270;25296;-78
2022/03/28 10:46:10;;;;;;;12.90;5.20;;;;;;;15.68;45.98;100705.56;107009;1270;22578;-77
2022/03/28 10:48:46;;;;;;;17.10;5.40;;;;;;;15.74;45.71;100704.31;107240;1271;24207;-78
2022/03/28 10:51:18;;;;;;;15.60;4.90;;;;;;;15.77;45.94;100691.69;107362;1270;23941;-78
2022/03/28 10:53:53;;;;;;;12.20;4.50;;;;;;;15.80;45.02;100682.44;107272;1271;22569;-77
2022/03/28 10:56:28;;;;;;;13.60;3.70;;;;;;;15.84;44.85;100682.20;107314;1270;22553;-78
2022/03/28 10:59:07;;;;;;;15.20;4.50;;;;;;;15.88;44.36;100684.83;107370;1270;26491;-77
2022/03/28 11:01:42;;;;;;;12.20;4.70;;;;;;;15.89;43.73;100680.44;107403;1270;23388;-77
2022/03/28 11:04:23;;;;;;;13.40;4.70;;;;;;;15.89;43.83;100674.65;107245;1271;22525;-77
2022/03/28 11:07:03;;;;;;;11.60;4.50;;;;;;;15.90;43.79;100663.90;106761;1270;22525;-77
2022/03/28 11:09:50;;;;;;;11.80;4.00;;;;;;;15.94;43.21;100656.55;106840;1270;25316;-77
2022/03/28 11:12:30;;;;;;;10.70;4.20;;;;;;;15.98;43.39;100655.44;106758;1270;24313;-77
2022/03/28 11:15:08;;;;;;;14.00;4.20;;;;;;;16.03;43.35;100650.33;106726;1270;26070;-78
2022/03/28 11:17:54;;;;;;;13.70;4.10;;;;;;;16.10;42.92;100642.21;107369;1270;22551;-78
2022/03/28 11:20:26;;;;;;;14.70;3.70;;;;;;;16.15;42.58;100639.86;107331;1270;22567;-78
2022/03/28 11:23:08;;;;;;;12.40;4.50;;;;;;;16.19;42.56;100637.33;107463;1270;22544;-78
2022/03/28 11:25:51;;;;;;;14.60;4.40;;;;;;;16.20;42.53;100624.27;106749;1270;22532;-77
2022/03/28 11:28:27;;;;;;;15.30;5.60;;;;;;;16.23;42.38;100616.95;106758;1270;25383;-77
2022/03/28 11:31:03;;;;;;;11.30;4.50;;;;;;;16.30;42.20;100621.11;107362;1270;24088;-77
2022/03/28 11:33:38;;;;;;;12.60;3.40;;;;;;;16.33;41.82;100613.63;107383;1270;22893;-78